Skip to content.

Wellington

  

Belmont - BEL

Logged in to unit HSN11759 as: Guest
(Last data received Sat 24 Feb 2018 01:10:00 - 3 minutes ago)

All FWI Graphs Forecast Hourly FWI Daily FWI Download FWI Data

Hourly FWI Logs | Period From 01:10 23/02/2018 to 01:10 24/02/2018

Change the DoC% for the 24hr period starting 12:00pm 23/2/2018 to

If the date above is the current day, then all future logs will inherit this value until such time as it is changed again. If you wish to change historic values you can do so by going back to the day you want to alter (navigate via the graphs) and change the DoC% there (however this will only affect that day).

WindRainHourly FWIsDaily FWIsForestGrassScrub
DateTime (NZST)Temp (C)RH (%)Dir (deg)Speed (km/h)Hourly (mm)Daily (mm)FFMCISIHFWIFFMCDMCDCISIBUIFWIDSRROS (m/h)FFI (kW/m)FFDCDoC (%)ROS (m/h)GFI (kW/m)GFDCROS (m/h)SFI (kW/m)SFDC
24/02/2018 0000 13.6 86.0 358 12.4 0.0 72.2 1.3 0.4 0 0 L 70 29 50 M 201 2010 V
23/02/2018 2300 13.8 85.7 357 13.7 0.0 71.8 1.3 0.4 0 0 L 70 31 55 M 215 2151 V
23/02/2018 2200 13.4 87.0 10 8.3 0.0 71.4 1.0 0.3 0 0 L 70 19 34 M 143 1434 H
23/02/2018 2100 13.9 87.1 344 10.8 0.0 71.1 1.1 0.3 0 0 L 70 23 41 M 169 1685 H
23/02/2018 2000 14.6 85.5 331 11.6 0.0 70.7 1.1 0.4 0 0 L 70 25 43 M 176 1755 H
23/02/2018 1900 15.1 84.4 323 13.7 0.0 70.2 1.3 0.4 0 0 L 70 28 50 M 199 1987 H
23/02/2018 1800 15.8 81.9 316 17.0 0.0 69.5 1.5 0.4 0 0 L 70 36 63 M 244 2441 V
23/02/2018 1700 16.1 82.0 324 23.6 0.0 68.7 2.0 0.6 0 0 L 70 60 105 M 372 3720 V
23/02/2018 1600 17.7 76.3 313 18.6 0.0 67.6 1.5 0.5 0 0 L 70 38 66 M 252 2515 V
23/02/2018 1500 17.4 78.6 307 23.2 0.0 66.2 1.8 0.5 0 0 L 70 50 88 M 322 3221 V
23/02/2018 1400 16.7 79.6 304 20.3 0.0 64.6 1.4 0.4 0 0 L 70 36 63 M 242 2422 V
23/02/2018 1300 17.2 77.6 300 23.6 0.0 63.1 1.6 0.5 0 0 L 70 42 74 M 279 2785 V
23/02/2018 1200 16.2 80.9 303 17.4 0.0 0.0 61.2 1.1 0.3 59.3 1.2 11.9 0.9 2.0 0.3 0.0 0 0 L 70 21 38 M 157 1567 H
23/02/2018 1100 15.9 80.3 300 21.1 0.0 59.7 1.2 0.3 0 0 L 70 25 44 M 179 1795 H
23/02/2018 1000 15.3 80.7 306 19.0 0.0 58.0 0.9 0.2 0 0 L 70 17 30 M 130 1301 H
23/02/2018 0900 13.6 83.8 325 17.8 0.0 56.2 0.8 0.2 0 0 L 70 12 22 M 98 978 H
23/02/2018 0800 13.4 83.1 304 9.1 0.0 54.8 0.4 0.1 0 0 L 70 5 8 L 43 429 M
23/02/2018 0700 11.8 85.5 327 13.7 0.0 53.5 0.5 0.1 0 0 L 70 6 10 M 50 503 H
23/02/2018 0600 10.4 84.3 322 7.5 0.0 52.3 0.3 0.1 0 0 L 70 3 5 L 26 264 M
23/02/2018 0500 11.1 82.4 53 2.9 0.0 51.2 0.2 0.1 0 0 L 70 2 3 L 16 158 M
23/02/2018 0400 10.4 83.1 66 3.3 0.0 50.3 0.2 0.1 0 0 L 70 1 2 L 14 137 M
23/02/2018 0300 10.1 84.6 61 2.5 0.0 49.3 0.2 0.0 0 0 L 70 1 2 L 11 108 M
23/02/2018 0200 9.8 85.9 42 2.9 0.0 48.5 0.2 0.0 0 0 L 70 1 1 L 10 95 M
23/02/2018 0100 10.8 82.6 82 9.9 0.0 47.7 0.2 0.1 0 0 L 70 1 2 L 14 137 M